createdAt,value
2017-12-21T00:02:28.069Z,29.20
2017-12-21T00:04:56.996Z,36.57
2017-12-21T00:07:29.068Z,30.40
2017-12-21T00:09:59.248Z,28.27
2017-12-21T00:12:29.251Z,37.77
2017-12-21T00:14:58.367Z,30.53
2017-12-21T00:17:28.434Z,40.00
2017-12-21T00:19:59.154Z,27.90
2017-12-21T00:22:36.863Z,28.37
2017-12-21T00:25:07.296Z,27.07
2017-12-21T00:27:37.108Z,28.30
2017-12-21T00:30:07.151Z,31.27
2017-12-21T00:32:36.055Z,25.27
2017-12-21T00:35:04.954Z,26.70
2017-12-21T00:37:34.341Z,23.70
2017-12-21T00:40:03.540Z,24.67
2017-12-21T00:42:32.604Z,25.50
2017-12-21T00:45:01.530Z,29.57
2017-12-21T00:47:30.570Z,26.10
2017-12-21T00:50:01.247Z,28.80
2017-12-21T00:52:30.261Z,29.10
2017-12-21T00:55:00.098Z,28.40
2017-12-21T00:57:40.946Z,32.50
2017-12-21T01:00:17.322Z,47.77
2017-12-21T01:02:59.618Z,33.13
2017-12-21T01:05:29.662Z,29.73
2017-12-21T01:07:59.717Z,22.40
2017-12-21T01:10:29.387Z,23.07
2017-12-21T01:12:59.463Z,23.87
2017-12-21T01:15:28.399Z,23.70
2017-12-21T01:17:57.328Z,25.20
2017-12-21T01:20:26.286Z,25.23
2017-12-21T01:22:55.254Z,28.10
2017-12-21T01:25:24.131Z,34.00
2017-12-21T01:27:53.030Z,26.63
2017-12-21T01:30:21.923Z,23.70
2017-12-21T01:32:50.893Z,29.27
2017-12-21T01:35:20.649Z,26.67
2017-12-21T01:37:49.908Z,30.77
2017-12-21T01:40:18.900Z,30.90
2017-12-21T01:42:47.995Z,24.40
2017-12-21T01:45:17.106Z,19.50
2017-12-21T01:47:46.186Z,21.30
2017-12-21T01:50:15.724Z,21.70
2017-12-21T01:52:44.596Z,31.40
2017-12-21T01:55:13.534Z,22.73
2017-12-21T01:57:44.915Z,22.90
2017-12-21T02:00:13.976Z,22.17
2017-12-21T02:02:45.820Z,22.80
2017-12-21T02:05:15.818Z,22.33
2017-12-21T02:07:44.748Z,20.07
2017-12-21T02:10:14.932Z,19.50
2017-12-21T02:12:43.873Z,20.63
2017-12-21T02:15:12.875Z,20.40
2017-12-21T02:17:41.815Z,19.67
2017-12-21T02:20:10.903Z,18.47
2017-12-21T02:22:40.018Z,18.00
2017-12-21T02:25:09.108Z,22.30
2017-12-21T02:27:38.118Z,19.10
2017-12-21T02:30:08.208Z,18.70
2017-12-21T02:32:37.392Z,19.00
2017-12-21T02:35:07.230Z,18.97
2017-12-21T02:37:36.955Z,20.93
2017-12-21T02:40:06.366Z,20.77
2017-12-21T02:42:36.246Z,20.37
2017-12-21T02:45:05.232Z,20.90
2017-12-21T02:47:34.392Z,17.37
2017-12-21T02:50:06.092Z,19.70
2017-12-21T02:52:35.779Z,21.93
2017-12-21T02:55:04.853Z,20.87
2017-12-21T02:57:33.845Z,18.70
2017-12-21T03:00:02.853Z,19.73
2017-12-21T03:02:31.809Z,18.10
2017-12-21T03:05:01.694Z,18.40
2017-12-21T03:07:30.721Z,19.57
2017-12-21T03:10:00.509Z,20.13
2017-12-21T03:12:29.528Z,21.40
2017-12-21T03:14:59.233Z,21.23
2017-12-21T03:17:28.915Z,21.57
2017-12-21T03:19:57.939Z,19.00
2017-12-21T03:22:27.867Z,18.17
2017-12-21T03:24:56.841Z,19.60
2017-12-21T03:27:25.794Z,22.03
2017-12-21T03:29:54.737Z,20.50
2017-12-21T03:32:24.449Z,23.03
2017-12-21T03:34:54.541Z,21.00
2017-12-21T03:37:23.455Z,20.70
2017-12-21T03:39:53.125Z,20.60
2017-12-21T03:42:22.023Z,19.73
2017-12-21T03:44:50.944Z,18.33
2017-12-21T03:47:20.586Z,21.63
2017-12-21T03:49:49.438Z,17.50
2017-12-21T03:52:18.471Z,18.90
2017-12-21T03:54:47.399Z,24.10
2017-12-21T03:57:16.455Z,17.27
2017-12-21T03:59:45.456Z,19.53
2017-12-21T04:02:14.379Z,18.63
2017-12-21T04:04:43.607Z,18.00
2017-12-21T04:07:13.706Z,17.63
2017-12-21T04:09:42.825Z,18.00
2017-12-21T04:12:12.743Z,19.23
2017-12-21T04:14:41.714Z,18.50
2017-12-21T04:17:11.873Z,19.03
2017-12-21T04:19:40.841Z,18.60
2017-12-21T04:22:10.622Z,20.13
2017-12-21T04:24:40.954Z,18.70
2017-12-21T04:27:10.859Z,19.60
2017-12-21T04:29:40.636Z,20.23
2017-12-21T04:32:09.635Z,22.00
2017-12-21T04:34:40.243Z,25.13
2017-12-21T04:37:09.265Z,23.40
2017-12-21T04:39:38.214Z,22.20
2017-12-21T04:42:07.299Z,24.80
2017-12-21T04:44:37.033Z,24.90
2017-12-21T04:47:06.278Z,24.53
2017-12-21T04:49:35.173Z,23.13
2017-12-21T04:52:04.241Z,22.93
2017-12-21T04:54:33.198Z,25.43
2017-12-21T04:57:02.132Z,29.70
2017-12-21T04:59:31.382Z,28.57
2017-12-21T05:02:01.039Z,28.90
2017-12-21T05:04:30.517Z,29.63
2017-12-21T05:06:59.806Z,26.40
2017-12-21T05:09:28.778Z,27.47
2017-12-21T05:11:58.466Z,27.40
2017-12-21T05:14:27.362Z,28.60
2017-12-21T05:16:56.379Z,27.57
2017-12-21T05:19:26.404Z,29.30
2017-12-21T05:21:55.877Z,26.67
2017-12-21T05:24:24.737Z,27.37
2017-12-21T05:26:53.646Z,27.80
2017-12-21T05:29:22.557Z,27.60
2017-12-21T05:31:51.452Z,26.63
2017-12-21T05:34:20.424Z,28.73
2017-12-21T05:36:49.303Z,29.20
2017-12-21T05:39:19.008Z,27.93
2017-12-21T05:41:47.909Z,33.13
2017-12-21T05:44:16.906Z,26.40
2017-12-21T05:46:45.855Z,27.10
2017-12-21T05:49:15.136Z,27.17
2017-12-21T05:51:44.892Z,25.70
2017-12-21T05:54:13.850Z,29.10
2017-12-21T05:56:42.768Z,27.03
2017-12-21T05:59:11.678Z,26.67
2017-12-21T06:01:41.090Z,25.23
2017-12-21T06:04:09.972Z,24.60
2017-12-21T06:06:38.935Z,24.47
2017-12-21T06:09:07.933Z,26.00
2017-12-21T06:11:36.897Z,26.50
2017-12-21T06:14:06.626Z,28.60
2017-12-21T06:16:35.570Z,24.47
2017-12-21T06:19:04.885Z,28.07
2017-12-21T06:21:34.821Z,28.80
2017-12-21T06:24:04.679Z,24.87
2017-12-21T06:26:33.644Z,26.30
2017-12-21T06:29:02.581Z,29.87
2017-12-21T06:31:32.085Z,30.77
2017-12-21T06:34:01.029Z,28.10
2017-12-21T06:36:30.138Z,26.00
2017-12-21T06:38:59.070Z,26.50
2017-12-21T06:41:28.839Z,27.67
2017-12-21T06:43:58.929Z,27.00
2017-12-21T06:46:28.967Z,29.53
2017-12-21T06:48:57.953Z,28.10
2017-12-21T06:51:27.215Z,33.70
2017-12-21T06:53:56.193Z,34.87
2017-12-21T06:56:34.856Z,31.20
2017-12-21T06:59:13.080Z,30.27
2017-12-21T07:01:48.219Z,33.37
2017-12-21T07:04:17.345Z,30.57
2017-12-21T07:06:46.242Z,32.10
2017-12-21T07:09:15.916Z,31.00
2017-12-21T07:11:44.784Z,31.97
2017-12-21T07:14:14.428Z,30.33
2017-12-21T07:16:51.758Z,40.00
2017-12-21T07:19:29.266Z,32.10
2017-12-21T07:21:59.025Z,30.90
2017-12-21T07:24:37.112Z,37.00
2017-12-21T07:27:14.854Z,30.00
2017-12-21T07:29:46.373Z,36.60
2017-12-21T07:32:15.334Z,32.20
2017-12-21T07:34:45.134Z,33.57
2017-12-21T07:37:14.852Z,33.50
2017-12-21T07:39:44.187Z,33.70
2017-12-21T07:42:18.581Z,40.97
2017-12-21T07:44:53.546Z,34.23
2017-12-21T07:47:22.820Z,36.17
2017-12-21T07:49:51.728Z,33.10
2017-12-21T07:52:21.107Z,41.87
2017-12-21T07:54:50.914Z,35.23
2017-12-21T07:57:20.635Z,40.17
2017-12-21T07:59:57.483Z,48.10
2017-12-21T08:02:34.699Z,40.17
2017-12-21T08:05:04.877Z,39.87
2017-12-21T08:07:34.624Z,40.70
2017-12-21T08:10:04.033Z,42.17
2017-12-21T08:12:33.297Z,44.23
2017-12-21T08:15:03.000Z,40.73
2017-12-21T08:17:31.916Z,41.80
2017-12-21T08:20:00.844Z,45.70
2017-12-21T08:22:30.326Z,51.83
2017-12-21T08:25:00.082Z,42.90
2017-12-21T08:27:29.326Z,36.93
2017-12-21T08:29:58.707Z,39.40
2017-12-21T08:32:32.244Z,38.20
2017-12-21T08:35:02.120Z,41.57
2017-12-21T08:37:31.927Z,37.53
2017-12-21T08:40:02.195Z,41.00
2017-12-21T08:42:31.466Z,38.43
2017-12-21T08:45:00.625Z,36.30
2017-12-21T08:47:29.913Z,41.17
2017-12-21T08:49:58.991Z,31.40
2017-12-21T08:52:36.755Z,34.27
2017-12-21T08:55:06.201Z,33.63
2017-12-21T08:57:35.603Z,36.10
2017-12-21T09:00:05.612Z,31.60
2017-12-21T09:02:34.605Z,35.57
2017-12-21T09:05:03.805Z,34.30
2017-12-21T09:07:42.084Z,34.47
2017-12-21T09:10:20.435Z,33.17
2017-12-21T09:12:53.416Z,35.30
2017-12-21T09:15:27.449Z,32.03
2017-12-21T09:17:56.516Z,32.00
2017-12-21T09:20:35.846Z,30.70
2017-12-21T09:23:31.710Z,28.43
2017-12-21T09:26:01.874Z,26.80
2017-12-21T09:28:31.019Z,31.80
2017-12-21T09:31:00.738Z,28.97
2017-12-21T09:33:30.707Z,26.33
2017-12-21T09:36:07.416Z,44.87
2017-12-21T09:38:37.852Z,24.50
2017-12-21T09:41:07.395Z,26.63
2017-12-21T09:43:43.286Z,23.57
2017-12-21T09:46:18.022Z,24.73
2017-12-21T09:48:54.447Z,22.07
2017-12-21T09:51:23.404Z,21.93
2017-12-21T09:53:52.680Z,23.23
2017-12-21T09:56:22.013Z,24.90
2017-12-21T09:58:51.804Z,20.60
2017-12-21T10:01:20.829Z,23.13
2017-12-21T10:03:51.538Z,20.97
2017-12-21T10:06:20.731Z,19.20
2017-12-21T10:08:49.869Z,17.73
2017-12-21T10:11:34.961Z,20.00
2017-12-21T10:14:11.185Z,17.70
2017-12-21T10:16:41.264Z,23.57
2017-12-21T10:19:10.781Z,20.03
2017-12-21T10:21:39.842Z,23.83
2017-12-21T10:24:09.207Z,20.50
2017-12-21T10:26:39.399Z,18.97
2017-12-21T10:29:08.485Z,18.37
2017-12-21T10:31:37.542Z,17.37
2017-12-21T10:34:07.652Z,18.53
2017-12-21T10:36:37.425Z,15.70
2017-12-21T10:39:09.538Z,17.97
2017-12-21T10:41:39.487Z,18.47
2017-12-21T10:44:08.905Z,15.80
2017-12-21T10:46:38.007Z,15.80
2017-12-21T10:49:07.763Z,15.70
2017-12-21T10:51:36.703Z,20.73
2017-12-21T10:54:06.775Z,16.50
2017-12-21T10:56:36.891Z,16.17
2017-12-21T10:59:08.396Z,14.70
2017-12-21T11:01:37.496Z,18.30
2017-12-21T11:04:06.481Z,14.30
2017-12-21T11:06:35.492Z,16.60
2017-12-21T11:09:05.876Z,17.70
2017-12-21T11:11:35.010Z,17.93
2017-12-21T11:14:04.181Z,16.03
2017-12-21T11:16:33.301Z,20.27
2017-12-21T11:19:02.555Z,18.30
2017-12-21T11:21:33.585Z,16.00
2017-12-21T11:24:04.411Z,18.07
2017-12-21T11:26:33.400Z,20.53
2017-12-21T11:29:02.478Z,18.10
2017-12-21T11:31:37.824Z,19.70
2017-12-21T11:34:07.686Z,17.80
2017-12-21T11:36:37.046Z,24.10
2017-12-21T11:39:06.494Z,21.93
2017-12-21T11:41:36.506Z,20.53
2017-12-21T11:44:05.668Z,23.33
2017-12-21T11:46:34.834Z,19.10
2017-12-21T11:49:04.330Z,20.90
2017-12-21T11:51:39.449Z,20.60
2017-12-21T11:54:17.715Z,19.53
2017-12-21T11:56:47.527Z,16.63
2017-12-21T11:59:16.721Z,17.20
2017-12-21T12:01:50.376Z,22.87
2017-12-21T12:04:31.513Z,19.67
2017-12-21T12:07:00.803Z,19.17
2017-12-21T12:09:30.441Z,18.93
2017-12-21T12:11:59.633Z,16.13
2017-12-21T12:14:29.559Z,17.07
2017-12-21T12:16:58.675Z,18.97
2017-12-21T12:19:28.604Z,17.13
2017-12-21T12:21:57.960Z,20.20
2017-12-21T12:24:28.242Z,20.57
2017-12-21T12:26:57.243Z,20.90
2017-12-21T12:29:35.055Z,17.10
2017-12-21T12:32:04.893Z,18.77
2017-12-21T12:34:44.602Z,19.10
2017-12-21T12:37:19.694Z,18.40
2017-12-21T12:39:49.496Z,23.27
2017-12-21T12:42:26.593Z,27.37
2017-12-21T12:45:08.083Z,19.13
2017-12-21T12:47:37.457Z,23.70
2017-12-21T12:50:13.952Z,21.67
2017-12-21T12:52:51.134Z,25.47
2017-12-21T12:55:21.891Z,21.63
2017-12-21T12:57:51.790Z,25.20
2017-12-21T13:00:20.881Z,24.53
2017-12-21T13:02:50.162Z,20.20
2017-12-21T13:05:20.124Z,21.53
2017-12-21T13:07:54.112Z,23.00
2017-12-21T13:10:31.128Z,22.33
2017-12-21T13:13:00.778Z,30.20
2017-12-21T13:15:31.316Z,29.30
2017-12-21T13:18:00.574Z,23.30
2017-12-21T13:20:29.522Z,21.90
2017-12-21T13:22:58.512Z,20.87
2017-12-21T13:25:27.657Z,48.00
2017-12-21T13:27:57.310Z,25.37
2017-12-21T13:30:33.143Z,21.13
2017-12-21T13:33:13.160Z,54.23
2017-12-21T13:35:48.053Z,21.20
2017-12-21T13:38:23.410Z,21.70
2017-12-21T13:40:54.638Z,21.70
2017-12-21T13:43:23.885Z,58.00
2017-12-21T13:45:53.131Z,19.03
2017-12-21T13:48:22.211Z,20.17
2017-12-21T13:50:52.544Z,19.97
2017-12-21T13:53:21.545Z,20.67
2017-12-21T13:55:52.020Z,19.50
2017-12-21T13:58:21.936Z,18.30
2017-12-21T14:00:51.197Z,19.47
2017-12-21T14:03:20.437Z,20.53
2017-12-21T14:05:51.862Z,17.13
2017-12-21T14:08:23.192Z,19.27
2017-12-21T14:10:52.428Z,39.50
2017-12-21T14:13:21.500Z,18.80
2017-12-21T14:15:50.580Z,19.20
2017-12-21T14:18:20.026Z,18.53
2017-12-21T14:20:50.117Z,18.07
2017-12-21T14:23:20.029Z,18.43
2017-12-21T14:25:49.975Z,20.67
2017-12-21T14:28:19.454Z,21.77
2017-12-21T14:30:48.490Z,18.73
2017-12-21T14:33:17.585Z,20.53
2017-12-21T14:35:47.116Z,17.80
2017-12-21T14:38:19.316Z,19.70
2017-12-21T14:40:48.398Z,18.17
2017-12-21T14:43:18.936Z,23.03
2017-12-21T14:45:49.384Z,22.00
2017-12-21T14:48:19.721Z,19.53
2017-12-21T14:50:48.724Z,18.93
2017-12-21T14:53:18.637Z,19.67
2017-12-21T14:55:49.601Z,19.60
2017-12-21T14:58:19.561Z,20.90
2017-12-21T15:00:48.907Z,20.10
2017-12-21T15:03:18.163Z,21.37
2017-12-21T15:05:48.015Z,23.43
2017-12-21T15:08:26.789Z,20.53
2017-12-21T15:11:02.461Z,22.67
2017-12-21T15:13:31.942Z,20.67
2017-12-21T15:16:01.642Z,22.03
2017-12-21T15:18:31.815Z,24.90
2017-12-21T15:21:00.905Z,24.73
2017-12-21T15:23:29.824Z,23.73
2017-12-21T15:26:00.510Z,24.53
2017-12-21T15:28:29.959Z,24.30
2017-12-21T15:30:59.756Z,23.87
2017-12-21T15:33:28.776Z,24.23
2017-12-21T15:36:02.720Z,22.00
2017-12-21T15:38:37.589Z,21.97
2017-12-21T15:41:07.261Z,24.10
2017-12-21T15:43:36.323Z,29.97
2017-12-21T15:46:10.694Z,19.77
2017-12-21T15:48:40.121Z,26.77
2017-12-21T15:51:09.891Z,28.73
2017-12-21T15:53:39.168Z,23.43
2017-12-21T15:56:09.186Z,38.43
2017-12-21T16:01:12.021Z,18.00
2017-12-21T16:03:42.327Z,20.60
2017-12-21T16:06:12.490Z,33.83
2017-12-21T16:08:42.875Z,34.40
2017-12-21T16:11:12.132Z,23.53
2017-12-21T16:13:43.323Z,24.53
2017-12-21T16:16:13.385Z,22.83
2017-12-21T16:18:43.716Z,23.23
2017-12-21T16:21:12.784Z,23.40
2017-12-21T16:23:41.978Z,31.17
2017-12-21T16:26:11.620Z,32.70
2017-12-21T16:28:41.684Z,29.70
2017-12-21T16:31:11.659Z,26.47
2017-12-21T16:33:41.684Z,29.97
2017-12-21T16:36:10.914Z,28.90
2017-12-21T16:38:40.303Z,30.30
2017-12-21T16:41:09.620Z,30.07
2017-12-21T16:43:38.694Z,27.50
2017-12-21T16:46:10.592Z,28.23
2017-12-21T16:48:39.668Z,32.67
2017-12-21T16:51:08.729Z,29.27
2017-12-21T16:53:38.120Z,31.13
2017-12-21T16:56:07.434Z,28.60
2017-12-21T16:58:36.622Z,31.10
2017-12-21T17:01:06.462Z,29.30
2017-12-21T17:03:35.695Z,30.97
2017-12-21T17:06:05.073Z,30.40
2017-12-21T17:08:35.929Z,30.73
2017-12-21T17:11:05.658Z,30.97
2017-12-21T17:13:38.374Z,27.50
2017-12-21T17:16:08.926Z,39.40
2017-12-21T17:18:38.568Z,32.70
2017-12-21T17:21:15.191Z,28.90
2017-12-21T17:23:52.719Z,34.10
2017-12-21T17:26:23.784Z,49.07
2017-12-21T17:28:53.116Z,34.23
2017-12-21T17:31:22.363Z,36.83
2017-12-21T17:33:51.683Z,29.73
2017-12-21T17:36:20.669Z,30.70
2017-12-21T17:38:50.335Z,30.07
2017-12-21T17:41:19.418Z,35.03
2017-12-21T17:43:48.397Z,32.30
2017-12-21T17:46:18.389Z,37.73
2017-12-21T17:48:48.291Z,38.67
2017-12-21T17:51:18.055Z,40.90
2017-12-21T17:53:47.916Z,43.53
2017-12-21T17:56:25.039Z,47.37
2017-12-21T17:58:54.967Z,35.00
2017-12-21T18:01:24.971Z,44.57
2017-12-21T18:03:57.423Z,35.10
2017-12-21T18:06:30.194Z,44.63
2017-12-21T18:09:03.136Z,32.10
2017-12-21T18:11:39.235Z,37.27
2017-12-21T18:14:19.501Z,37.20
2017-12-21T18:16:49.142Z,35.97
2017-12-21T18:19:19.039Z,29.60
2017-12-21T18:21:52.901Z,32.00
2017-12-21T18:24:24.845Z,29.47
2017-12-21T18:26:55.294Z,28.97
2017-12-21T18:29:24.323Z,30.30
2017-12-21T18:31:54.042Z,35.33
2017-12-21T18:34:25.049Z,34.80
2017-12-21T18:37:02.720Z,73.23
2017-12-21T18:39:40.172Z,42.17
2017-12-21T18:42:15.734Z,36.77
2017-12-21T18:44:45.231Z,48.33
2017-12-21T18:47:24.270Z,41.67
2017-12-21T18:50:01.272Z,75.90
2017-12-21T18:52:30.908Z,57.27
2017-12-21T18:55:00.781Z,52.53
2017-12-21T18:57:41.143Z,36.07
2017-12-21T19:00:19.830Z,99.97
2017-12-21T19:02:56.579Z,39.17
2017-12-21T19:05:27.264Z,87.13
2017-12-21T19:07:57.296Z,43.77
2017-12-21T19:10:28.884Z,105.27
2017-12-21T19:12:58.289Z,48.30
2017-12-21T19:15:30.576Z,40.00
2017-12-21T19:18:00.407Z,36.23
2017-12-21T19:20:30.550Z,82.03
2017-12-21T19:23:07.778Z,42.43
2017-12-21T19:25:37.405Z,37.30
2017-12-21T19:28:07.529Z,37.03
2017-12-21T19:30:37.524Z,53.90
2017-12-21T19:33:08.696Z,44.27
2017-12-21T19:35:37.901Z,38.17
2017-12-21T19:38:07.332Z,36.20
2017-12-21T19:40:45.372Z,39.93
2017-12-21T19:43:21.439Z,35.80
2017-12-21T19:45:51.422Z,29.07
2017-12-21T19:48:21.481Z,79.63
2017-12-21T19:50:52.107Z,53.10
2017-12-21T19:53:35.601Z,36.20
2017-12-21T19:56:11.314Z,29.10
2017-12-21T19:58:45.929Z,33.80
2017-12-21T20:01:22.979Z,42.00
2017-12-21T20:03:53.569Z,42.80
2017-12-21T20:06:24.839Z,31.13
2017-12-21T20:08:54.725Z,37.90
2017-12-21T20:11:24.519Z,29.80
2017-12-21T20:13:56.383Z,30.13
2017-12-21T20:16:27.201Z,41.40
2017-12-21T20:18:57.574Z,48.27
2017-12-21T20:21:28.692Z,35.13
2017-12-21T20:24:03.779Z,30.77
2017-12-21T20:26:43.642Z,88.13
2017-12-21T20:29:13.115Z,91.67
2017-12-21T20:31:42.378Z,36.53
2017-12-21T20:34:15.756Z,29.27
2017-12-21T20:36:48.804Z,63.00
2017-12-21T20:39:18.698Z,72.37
2017-12-21T20:41:48.928Z,32.57
2017-12-21T20:44:18.270Z,48.43
2017-12-21T20:46:47.862Z,52.90
2017-12-21T20:49:26.991Z,50.70
2017-12-21T20:51:58.717Z,49.87
2017-12-21T20:54:28.863Z,47.57
2017-12-21T20:56:58.464Z,57.20
2017-12-21T20:59:27.929Z,96.83
2017-12-21T21:01:57.460Z,66.40
2017-12-21T21:04:27.102Z,93.13
2017-12-21T21:06:58.700Z,105.87
2017-12-21T21:09:28.890Z,56.00
2017-12-21T21:12:04.075Z,35.03
2017-12-21T21:14:44.012Z,52.27
2017-12-21T21:17:21.388Z,46.80
2017-12-21T21:19:50.839Z,48.43
2017-12-21T21:22:20.109Z,53.20
2017-12-21T21:24:50.596Z,41.20
2017-12-21T21:27:19.966Z,36.57
2017-12-21T21:29:52.158Z,42.63
2017-12-21T21:32:25.617Z,55.60
2017-12-21T21:35:02.600Z,40.03
2017-12-21T21:37:36.248Z,26.07
2017-12-21T21:40:05.980Z,42.17
2017-12-21T21:42:35.075Z,39.70
2017-12-21T21:45:04.299Z,33.53
2017-12-21T21:47:34.111Z,35.07
2017-12-21T21:50:04.514Z,29.53
2017-12-21T21:52:33.667Z,23.20
2017-12-21T21:55:02.786Z,53.93
2017-12-21T21:57:31.994Z,22.93
2017-12-21T22:00:00.968Z,27.43
2017-12-21T22:02:35.324Z,36.83
2017-12-21T22:05:04.610Z,28.10
2017-12-21T22:07:36.505Z,45.17
2017-12-21T22:10:08.069Z,40.30
2017-12-21T22:12:42.819Z,44.43
2017-12-21T22:15:18.538Z,61.07
2017-12-21T22:17:51.078Z,88.83
2017-12-21T22:20:20.998Z,44.23
2017-12-21T22:22:49.959Z,42.30
2017-12-21T22:25:19.097Z,40.50
2017-12-21T22:27:49.536Z,24.00
2017-12-21T22:30:20.435Z,43.77
2017-12-21T22:32:49.493Z,30.33
2017-12-21T22:35:19.376Z,34.33
2017-12-21T22:37:49.918Z,38.13
2017-12-21T22:40:20.110Z,31.67
2017-12-21T22:42:49.226Z,21.57
2017-12-21T22:45:19.495Z,81.57
2017-12-21T22:47:52.940Z,71.70
2017-12-21T22:50:25.297Z,95.87
2017-12-21T22:52:59.002Z,46.83
2017-12-21T22:55:31.947Z,27.77
2017-12-21T22:58:06.242Z,25.97
2017-12-21T23:00:41.726Z,37.07
2017-12-21T23:03:23.918Z,57.60
2017-12-21T23:05:53.573Z,32.53
2017-12-21T23:08:51.345Z,52.20
2017-12-21T23:11:29.960Z,41.60
2017-12-21T23:14:00.273Z,22.30
2017-12-21T23:16:29.729Z,31.13
2017-12-21T23:18:59.849Z,27.57
2017-12-21T23:21:37.572Z,33.20
2017-12-21T23:24:20.043Z,38.67
2017-12-21T23:26:50.281Z,31.60
2017-12-21T23:29:19.681Z,37.10
2017-12-21T23:31:59.625Z,31.73
2017-12-21T23:34:55.176Z,31.10
2017-12-21T23:37:55.583Z,36.97
2017-12-21T23:40:31.980Z,44.80
2017-12-21T23:43:07.590Z,31.70
2017-12-21T23:45:38.118Z,32.00
2017-12-21T23:48:07.535Z,31.70
2017-12-21T23:50:37.304Z,24.70
2017-12-21T23:53:07.058Z,31.80
2017-12-21T23:55:40.905Z,43.67
2017-12-21T23:58:12.465Z,31.53
